Aérodrome :
LOGIN :

S'inscrire | Disclaimer

   EN    FR    IT 

 










Légende :    VFR   VFR Marginal   IFR   IFR Intensif   IFR Très Intensif
Visi : 
Plafond : 
>= 8 km
>= 3000ft
5 à 8 km
1000 à 3000 ft
1500m à 5 km
500 à 1000 ft
800 à 1500m
200 à 500 ft
< 800m
< 200 ft
Symboles :   Orages  Brouillard  Fortes neiges  Fortes précipitations  Vent > 20 kt
SIGMETs :   Divers  Orages  Givrage  Turbulence  Onde Orograph.  Cendres Volcan.






- Altitude de l'aérodrome : 353 ft
- Code IATA : LIN


LIML - Milano Linate

DERNIER METAR :
  • 060920Z 07006KT 030V140 CAVOK 23/16 Q1006 NOSIG

METARs EXPIRÉS :
  • 060850Z 11007KT 030V160 9999 FEW020 23/16 Q1007 NOSIG
  • 060820Z 07005KT 030V120 9999 FEW020 22/16 Q1007 NOSIG
  • 060750Z 08004KT 040V110 9999 FEW020 21/15 Q1007 NOSIG
  • 060720Z 09006KT 040V120 CAVOK 21/15 Q1007 NOSIG
  • 060650Z 10005KT 060V140 CAVOK 20/15 Q1006 NOSIG

TAF TAF LIML
Valide du 06 à 06h jusqu'au 07 à 06h UTC


060500Z 0606/0706 VRB05KT 9999 SCT030
BECMG 0608/0610 14010KT
TEMPO 0616/0706 4000 TSRA
BECMG 0616/0618 VRB05KT



MET'MAP, la Météo Aéronautique d'un coup d'oeil ! - Copyright ORBIFLY Décembre 2007 - Disclaimer

ORBIFLY MET'MAP TEAM :

Programmation & Développement : Alexandra Zaïnal
Sur une idée originale de : Baudouin d'Aumeries
Assistance à la programmation : Marc-Olivier Méhu
Soutien technique & logistique : Manuel Goepfert

Contact : metmap@orbifly.com




SOURCES & CREDITS :

   NOAA